createdAt,value
2023-02-16T00:01:27.594Z,99373.00
2023-02-16T00:03:58.120Z,99369.00
2023-02-16T00:06:29.912Z,99376.00
2023-02-16T00:08:59.340Z,99377.00
2023-02-16T00:11:54.756Z,99379.00
2023-02-16T00:14:27.156Z,99379.00
2023-02-16T00:16:59.346Z,99386.00
2023-02-16T00:19:35.132Z,99383.00
2023-02-16T00:22:06.290Z,99382.00
2023-02-16T00:24:36.265Z,99387.00
2023-02-16T00:27:15.214Z,99392.00
2023-02-16T00:29:45.953Z,99401.00
2023-02-16T00:32:15.609Z,99413.00
2023-02-16T00:34:45.328Z,99413.00
2023-02-16T00:37:16.150Z,99420.00
2023-02-16T00:39:46.825Z,99427.00
2023-02-16T00:42:26.869Z,99428.00
2023-02-16T00:45:00.514Z,99440.00
2023-02-16T00:47:42.778Z,99432.00
2023-02-16T00:50:33.397Z,99427.00
2023-02-16T00:53:03.782Z,99444.00
2023-02-16T00:55:36.710Z,99446.00
2023-02-16T00:58:15.237Z,99444.00
2023-02-16T01:00:54.619Z,99441.00
2023-02-16T01:03:29.838Z,99443.00
2023-02-16T01:06:17.283Z,99445.00
2023-02-16T01:09:04.987Z,99453.00
2023-02-16T01:11:34.218Z,99451.00
2023-02-16T01:14:03.453Z,99459.00
2023-02-16T01:16:42.305Z,99458.00
2023-02-16T01:19:14.301Z,99470.00
2023-02-16T01:21:43.560Z,99475.00
2023-02-16T01:24:12.882Z,99477.00
2023-02-16T01:26:49.371Z,99476.00
2023-02-16T01:29:23.329Z,99481.00
2023-02-16T01:31:52.774Z,99476.00
2023-02-16T01:34:21.958Z,99483.00
2023-02-16T01:36:51.417Z,99489.00
2023-02-16T01:39:22.287Z,99494.00
2023-02-16T01:42:16.051Z,99502.00
2023-02-16T01:45:00.996Z,99501.00
2023-02-16T01:47:52.694Z,99502.00
2023-02-16T01:50:38.211Z,99500.00
2023-02-16T01:53:36.270Z,99508.00
2023-02-16T01:56:29.712Z,99514.00
2023-02-16T01:59:09.489Z,99510.00
2023-02-16T02:02:05.904Z,99518.00
2023-02-16T02:05:10.544Z,99523.00
2023-02-16T02:08:13.678Z,99528.00
2023-02-16T02:10:57.674Z,99538.00
2023-02-16T02:13:57.754Z,99537.00
2023-02-16T02:16:29.680Z,99529.00
2023-02-16T02:18:59.688Z,99536.00
2023-02-16T02:22:31.822Z,99533.00
2023-02-16T02:25:21.759Z,99542.00
2023-02-16T02:28:10.110Z,99533.00
2023-02-16T02:31:11.500Z,99532.00
2023-02-16T02:34:06.117Z,99544.00
2023-02-16T02:36:47.113Z,99553.00
2023-02-16T02:39:47.017Z,99548.00
2023-02-16T02:42:49.880Z,99552.00
2023-02-16T02:45:29.749Z,99557.00
2023-02-16T02:47:58.890Z,99560.00
2023-02-16T02:51:13.993Z,99557.00
2023-02-16T02:54:23.276Z,99570.00
2023-02-16T02:57:26.685Z,99572.00
2023-02-16T03:00:21.915Z,99568.00
2023-02-16T03:02:58.463Z,99565.00
2023-02-16T03:05:31.769Z,99571.00
2023-02-16T03:08:16.964Z,99560.00
2023-02-16T03:11:17.110Z,99573.00
2023-02-16T03:13:58.312Z,99571.00
2023-02-16T03:16:48.460Z,99565.00
2023-02-16T03:19:38.541Z,99566.00
2023-02-16T03:22:25.906Z,99566.00
2023-02-16T03:25:13.135Z,99566.00
2023-02-16T03:28:02.722Z,99561.00
2023-02-16T03:30:32.687Z,99563.00
2023-02-16T03:33:02.350Z,99552.00
2023-02-16T03:35:32.208Z,99561.00
2023-02-16T03:38:01.667Z,99564.00
2023-02-16T03:40:35.922Z,99561.00
2023-02-16T03:43:09.545Z,99550.00
2023-02-16T03:45:44.813Z,99545.00
2023-02-16T03:48:14.574Z,99542.00
2023-02-16T03:50:45.053Z,99536.00
2023-02-16T03:53:14.898Z,99548.00
2023-02-16T03:55:49.726Z,99545.00
2023-02-16T03:58:23.608Z,99543.00
2023-02-16T04:00:54.511Z,99541.00
2023-02-16T04:03:23.775Z,99536.00
2023-02-16T04:05:53.092Z,99527.00
2023-02-16T04:08:22.364Z,99526.00
2023-02-16T04:10:51.694Z,99526.00
2023-02-16T04:13:21.264Z,99525.00
2023-02-16T04:15:50.799Z,99530.00
2023-02-16T04:18:20.028Z,99526.00
2023-02-16T04:20:49.314Z,99524.00
2023-02-16T04:23:18.536Z,99516.00
2023-02-16T04:25:48.068Z,99516.00
2023-02-16T04:28:17.464Z,99505.00
2023-02-16T04:30:47.013Z,99496.00
2023-02-16T04:33:16.785Z,99507.00
2023-02-16T11:17:19.420Z,99137.00
2023-02-16T11:20:22.934Z,99134.00
2023-02-16T11:22:52.732Z,99147.00
2023-02-16T11:25:28.897Z,99144.00
2023-02-16T11:28:10.625Z,99147.00
2023-02-16T11:30:44.342Z,99147.00
2023-02-16T11:33:30.690Z,99149.00
2023-02-16T11:35:59.885Z,99144.00
2023-02-16T11:38:39.295Z,99147.00
2023-02-16T11:41:09.806Z,99145.00
2023-02-16T11:43:43.641Z,99147.00
2023-02-16T11:46:20.528Z,99145.00
2023-02-16T11:48:50.280Z,99149.00
2023-02-16T11:51:35.271Z,99154.00
2023-02-16T11:54:08.744Z,99161.00
2023-02-16T11:56:38.216Z,99158.00
2023-02-16T11:59:21.781Z,99157.00
2023-02-16T12:02:20.038Z,99171.00
2023-02-16T12:05:17.900Z,99172.00
2023-02-16T12:07:47.906Z,99170.00
2023-02-16T12:10:58.851Z,99182.00
2023-02-16T12:13:42.997Z,99190.00
2023-02-16T12:16:42.844Z,99193.00
2023-02-16T12:19:37.636Z,99199.00
2023-02-16T12:22:36.168Z,99198.00
2023-02-16T12:25:37.862Z,99198.00
2023-02-16T12:28:39.646Z,99198.00
2023-02-16T12:31:28.017Z,99209.00
2023-02-16T12:34:21.813Z,99217.00
2023-02-16T12:37:23.515Z,99215.00
2023-02-16T12:40:28.402Z,99220.00
2023-02-16T12:43:18.814Z,99224.00
2023-02-16T12:45:50.582Z,99223.00
2023-02-16T12:48:43.616Z,99232.00
2023-02-16T12:51:22.355Z,99239.00
2023-02-16T12:53:54.550Z,99237.00
2023-02-16T12:56:34.711Z,99240.00
2023-02-16T12:59:27.323Z,99245.00
2023-02-16T13:02:01.277Z,99247.00
2023-02-16T13:05:02.754Z,99262.00
2023-02-16T13:07:48.392Z,99263.00
2023-02-16T13:10:32.005Z,99262.00
2023-02-16T13:13:19.039Z,99272.00
2023-02-16T13:15:56.375Z,99279.00
2023-02-16T13:18:39.224Z,99290.00
2023-02-16T13:21:25.689Z,99294.00
2023-02-16T13:24:00.945Z,99317.00
2023-02-16T13:27:09.340Z,99306.00
2023-02-16T13:30:07.156Z,99320.00
2023-02-16T13:33:38.387Z,99314.00
2023-02-16T13:36:39.018Z,99321.00
2023-02-16T13:39:41.914Z,99320.00
2023-02-16T13:42:26.536Z,99325.00
2023-02-16T13:45:06.732Z,99325.00
2023-02-16T13:47:43.138Z,99322.00
2023-02-16T13:50:25.113Z,99332.00
2023-02-16T13:52:59.564Z,99326.00
2023-02-16T13:55:38.557Z,99330.00
2023-02-16T13:58:29.273Z,99331.00
2023-02-16T14:00:58.578Z,99337.00
2023-02-16T14:03:38.969Z,99343.00
2023-02-16T14:06:29.575Z,99341.00
2023-02-16T14:09:18.805Z,99351.00
2023-02-16T14:11:58.657Z,99355.00
2023-02-16T14:14:37.614Z,99349.00
2023-02-16T14:17:24.997Z,99356.00
2023-02-16T14:20:15.984Z,99365.00
2023-02-16T14:22:52.775Z,99363.00
2023-02-16T14:25:24.907Z,99362.00
2023-02-16T14:27:57.440Z,99366.00
2023-02-16T14:30:50.726Z,99370.00
2023-02-16T14:33:40.664Z,99371.00
2023-02-16T14:36:27.414Z,99373.00
2023-02-16T14:39:00.554Z,99379.00
2023-02-16T14:41:39.897Z,99373.00
2023-02-16T14:44:09.111Z,99373.00
2023-02-16T14:47:06.963Z,99375.00
2023-02-16T14:50:18.597Z,99383.00
2023-02-16T14:53:05.635Z,99381.00
2023-02-16T14:55:47.289Z,99381.00
2023-02-16T14:59:13.218Z,99384.00
2023-02-16T15:01:47.065Z,99387.00
2023-02-16T15:04:34.189Z,99395.00
2023-02-16T15:07:08.608Z,99396.00
2023-02-16T15:09:44.086Z,99391.00
2023-02-16T15:12:23.202Z,99395.00
2023-02-16T15:15:03.802Z,99409.00
2023-02-16T15:17:51.194Z,99411.00
2023-02-16T15:20:35.422Z,99410.00
2023-02-16T15:23:18.707Z,99407.00
2023-02-16T15:26:01.053Z,99406.00
2023-02-16T15:28:40.023Z,99412.00
2023-02-16T15:31:24.064Z,99420.00
2023-02-16T15:34:01.424Z,99418.00
2023-02-16T15:36:40.819Z,99423.00
2023-02-16T15:39:37.922Z,99422.00
2023-02-16T15:42:28.620Z,99427.00
2023-02-16T15:44:58.037Z,99427.00
2023-02-16T15:47:28.592Z,99417.00
2023-02-16T15:49:57.747Z,99427.00
2023-02-16T15:52:39.303Z,99421.00
2023-02-16T15:55:11.432Z,99419.00
2023-02-16T15:57:42.658Z,99425.00
2023-02-16T16:00:21.690Z,99429.00
2023-02-16T16:02:57.027Z,99436.00
2023-02-16T16:05:41.784Z,99444.00
2023-02-16T16:08:18.576Z,99440.00
2023-02-16T16:10:49.469Z,99453.00
2023-02-16T16:13:27.676Z,99454.00
2023-02-16T16:16:02.889Z,99452.00
2023-02-16T16:18:51.221Z,99456.00
2023-02-16T16:21:30.603Z,99450.00
2023-02-16T16:24:09.929Z,99450.00
2023-02-16T16:26:59.555Z,99459.00
2023-02-16T16:29:42.501Z,99462.00
2023-02-16T16:32:24.708Z,99461.00
2023-02-16T16:34:53.989Z,99464.00
2023-02-16T16:37:38.267Z,99458.00
2023-02-16T16:40:38.670Z,99453.00
2023-02-16T16:43:17.366Z,99452.00
2023-02-16T16:45:50.234Z,99452.00
2023-02-16T16:48:37.337Z,99453.00
2023-02-16T16:51:22.599Z,99458.00
2023-02-16T16:54:04.940Z,99453.00
2023-02-16T16:56:40.078Z,99450.00
2023-02-16T16:59:10.183Z,99453.00
2023-02-16T17:01:39.461Z,99446.00
2023-02-16T17:04:08.597Z,99443.00
2023-02-16T17:06:37.695Z,99446.00
2023-02-16T17:09:06.968Z,99441.00
2023-02-16T17:11:40.188Z,99431.00
2023-02-16T17:14:19.034Z,99429.00
2023-02-16T17:16:54.181Z,99423.00
2023-02-16T17:19:25.626Z,99425.00
2023-02-16T17:21:54.797Z,99430.00
2023-02-16T17:24:24.176Z,99429.00
2023-02-16T17:26:53.432Z,99427.00
2023-02-16T17:29:23.548Z,99428.00
2023-02-16T17:31:52.731Z,99428.00
2023-02-16T17:34:21.980Z,99431.00
2023-02-16T17:36:51.177Z,99424.00
2023-02-16T17:39:20.623Z,99427.00
2023-02-16T17:41:51.777Z,99429.00
2023-02-16T17:44:20.936Z,99426.00
2023-02-16T17:46:50.125Z,99432.00
2023-02-16T17:49:19.451Z,99436.00
2023-02-16T17:51:48.709Z,99438.00
2023-02-16T17:54:17.785Z,99435.00
2023-02-16T17:56:48.221Z,99430.00
2023-02-16T17:59:17.680Z,99425.00
2023-02-16T18:01:47.372Z,99423.00
2023-02-16T18:04:16.621Z,99423.00
2023-02-16T18:06:45.785Z,99422.00
2023-02-16T18:09:21.555Z,99423.00
2023-02-16T18:11:50.641Z,99428.00
2023-02-16T18:14:19.693Z,99423.00
2023-02-16T18:16:53.642Z,99431.00
2023-02-16T18:19:22.813Z,99428.00
2023-02-16T18:21:51.901Z,99425.00
2023-02-16T18:24:21.362Z,99428.00
2023-02-16T18:26:50.953Z,99419.00
2023-02-16T18:29:20.762Z,99417.00
2023-02-16T18:31:50.429Z,99416.00
2023-02-16T18:34:19.804Z,99408.00
2023-02-16T18:36:48.946Z,99407.00
2023-02-16T18:39:17.999Z,99389.00
2023-02-16T18:41:47.250Z,99395.00
2023-02-16T18:44:19.045Z,99384.00
2023-02-16T18:46:48.874Z,99383.00
2023-02-16T18:49:17.990Z,99379.00
2023-02-16T18:51:47.120Z,99375.00
2023-02-16T18:54:16.571Z,99377.00
2023-02-16T18:56:45.828Z,99378.00
2023-02-16T18:59:15.271Z,99377.00
2023-02-16T19:01:46.196Z,99367.00
2023-02-16T19:04:15.510Z,99374.00
2023-02-16T19:06:44.544Z,99360.00
2023-02-16T19:09:13.627Z,99355.00
2023-02-16T19:11:42.823Z,99355.00
2023-02-16T19:14:12.594Z,99359.00
2023-02-16T19:16:42.795Z,99351.00
2023-02-16T19:19:12.814Z,99350.00
2023-02-16T19:21:45.110Z,99352.00
2023-02-16T19:24:14.532Z,99337.00
2023-02-16T19:26:43.721Z,99329.00
2023-02-16T19:29:13.797Z,99326.00
2023-02-16T19:31:43.187Z,99320.00
2023-02-16T19:34:13.091Z,99318.00
2023-02-16T19:36:42.737Z,99322.00
2023-02-16T19:39:13.444Z,99320.00
2023-02-16T19:41:47.139Z,99321.00
2023-02-16T19:44:16.701Z,99322.00
2023-02-16T19:46:45.963Z,99320.00
2023-02-16T19:49:16.702Z,99311.00
2023-02-16T19:51:48.500Z,99308.00
2023-02-16T19:54:17.789Z,99300.00
2023-02-16T19:56:47.036Z,99298.00
2023-02-16T19:59:17.012Z,99289.00
2023-02-16T20:01:46.226Z,99290.00
2023-02-16T20:04:16.985Z,99293.00
2023-02-16T20:06:46.768Z,99297.00
2023-02-16T20:09:18.603Z,99295.00
2023-02-16T20:11:47.908Z,99298.00
2023-02-16T20:14:17.164Z,99285.00
2023-02-16T20:16:46.615Z,99289.00
2023-02-16T20:19:16.589Z,99282.00
2023-02-16T20:21:47.309Z,99278.00
2023-02-16T20:24:17.511Z,99278.00
2023-02-16T20:26:50.069Z,99276.00
2023-02-16T20:29:21.587Z,99270.00
2023-02-16T20:31:57.982Z,99274.00
2023-02-16T20:34:28.765Z,99264.00
2023-02-16T20:36:57.989Z,99262.00
2023-02-16T20:39:27.789Z,99258.00
2023-02-16T20:41:59.159Z,99256.00
2023-02-16T20:44:28.933Z,99251.00
2023-02-16T20:46:58.209Z,99257.00
2023-02-16T20:49:27.420Z,99263.00
2023-02-16T20:51:56.713Z,99265.00
2023-02-16T20:54:26.012Z,99264.00
2023-02-16T20:56:55.289Z,99263.00
2023-02-16T20:59:24.456Z,99260.00
2023-02-16T21:01:53.703Z,99257.00
2023-02-16T21:04:23.495Z,99256.00
2023-02-16T21:06:52.696Z,99249.00
2023-02-16T21:09:21.894Z,99247.00
2023-02-16T21:11:51.063Z,99244.00
2023-02-16T21:14:20.262Z,99244.00
2023-02-16T21:16:49.535Z,99251.00
2023-02-16T21:19:23.336Z,99251.00
2023-02-16T21:21:53.848Z,99248.00
2023-02-16T21:24:23.129Z,99243.00
2023-02-16T21:26:52.371Z,99248.00
2023-02-16T21:29:21.679Z,99247.00
2023-02-16T21:31:50.944Z,99249.00
2023-02-16T21:34:20.260Z,99251.00
2023-02-16T21:36:49.512Z,99242.00
2023-02-16T21:39:18.962Z,99239.00
2023-02-16T21:41:49.971Z,99247.00
2023-02-16T21:44:19.286Z,99243.00
2023-02-16T21:46:49.411Z,99244.00
2023-02-16T21:49:21.341Z,99246.00
2023-02-16T21:51:51.168Z,99245.00
2023-02-16T21:54:41.037Z,99254.00
2023-02-16T21:57:10.249Z,99247.00
2023-02-16T21:59:39.602Z,99247.00
2023-02-16T22:02:10.796Z,99248.00
2023-02-16T22:04:40.028Z,99247.00
2023-02-16T22:07:09.242Z,99248.00
2023-02-16T22:09:38.447Z,99248.00
2023-02-16T22:12:07.909Z,99259.00
2023-02-16T22:14:37.086Z,99256.00
2023-02-16T22:17:08.682Z,99260.00
2023-02-16T22:19:38.771Z,99262.00
2023-02-16T22:22:07.948Z,99268.00
2023-02-16T22:24:37.120Z,99270.00
2023-02-16T22:27:06.337Z,99258.00
2023-02-16T22:29:35.661Z,99264.00
2023-02-16T22:32:04.946Z,99267.00
2023-02-16T22:34:34.215Z,99272.00
2023-02-16T22:37:03.389Z,99267.00
2023-02-16T22:39:32.786Z,99272.00
2023-02-16T22:42:02.076Z,99273.00
2023-02-16T22:44:31.596Z,99282.00
2023-02-16T22:47:00.778Z,99280.00
2023-02-16T22:49:30.125Z,99276.00
2023-02-16T22:51:59.372Z,99284.00
2023-02-16T22:54:28.608Z,99285.00
2023-02-16T22:56:57.860Z,99281.00
2023-02-16T22:59:27.268Z,99286.00
2023-02-16T23:01:56.505Z,99295.00
2023-02-16T23:04:26.192Z,99291.00
2023-02-16T23:06:55.559Z,99298.00
2023-02-16T23:09:24.780Z,99304.00
2023-02-16T23:11:54.031Z,99318.00
2023-02-16T23:14:24.282Z,99318.00
2023-02-16T23:16:58.531Z,99318.00
2023-02-16T23:19:28.857Z,99322.00
2023-02-16T23:21:58.036Z,99323.00
2023-02-16T23:24:27.576Z,99325.00
2023-02-16T23:26:57.314Z,99328.00
2023-02-16T23:29:27.911Z,99326.00
2023-02-16T23:31:57.240Z,99329.00
2023-02-16T23:34:26.414Z,99331.00
2023-02-16T23:36:55.698Z,99337.00
2023-02-16T23:39:24.916Z,99333.00
2023-02-16T23:41:54.187Z,99330.00
2023-02-16T23:44:23.437Z,99337.00
2023-02-16T23:46:52.631Z,99334.00
2023-02-16T23:49:21.846Z,99327.00
2023-02-16T23:51:51.023Z,99336.00
2023-02-16T23:54:20.207Z,99337.00
2023-02-16T23:56:50.702Z,99333.00
2023-02-16T23:59:21.681Z,99333.00
